Time;durP1;ratioP1;P1;durP2;ratioP2;P2;SDS_P1;SDS_P2;PMS_P1;PMS_P2;Temp;Humidity;BMP_temperature;BMP_pressure;BME280_temperature;BME280_humidity;BME280_pressure;Samples;Min_cycle;Max_cycle;Signal;HPM_P1;HPM_P2
2023/04/26 00:01:57;;;;;;;1.55;1.45;;;;;;;7.19;100.00;99113.19;6293738;28;20127;-73
2023/04/26 00:05:02;;;;;;;2.58;1.60;;;;;;;7.12;100.00;99111.88;6286245;28;20192;-73
2023/04/26 00:08:03;;;;;;;2.92;1.83;;;;;;;7.15;100.00;99120.31;6273293;28;20614;-72
2023/04/26 00:11:04;;;;;;;2.60;1.83;;;;;;;7.16;100.00;99118.53;6304938;28;20064;-72
2023/04/26 00:14:05;;;;;;;3.10;2.10;;;;;;;7.11;100.00;99124.03;6297382;28;20048;-73
2023/04/26 00:17:06;;;;;;;3.05;1.75;;;;;;;7.13;100.00;99121.34;6278436;28;20052;-73
2023/04/26 00:20:09;;;;;;;3.63;1.80;;;;;;;7.13;100.00;99129.13;6281353;28;20149;-73
2023/04/26 00:23:12;;;;;;;1.98;1.73;;;;;;;7.06;100.00;99126.91;6297194;28;20087;-73
2023/04/26 00:26:12;;;;;;;2.72;2.10;;;;;;;6.96;100.00;99130.13;6278492;28;20052;-72
2023/04/26 00:29:13;;;;;;;3.33;2.10;;;;;;;7.09;100.00;99133.66;6270738;28;20080;-72
2023/04/26 00:32:14;;;;;;;1.60;1.50;;;;;;;6.97;100.00;99143.00;6278621;28;20059;-73
2023/04/26 00:35:15;;;;;;;2.92;1.95;;;;;;;6.80;100.00;99130.25;6297338;28;20068;-73
2023/04/26 00:38:16;;;;;;;2.58;1.88;;;;;;;6.92;100.00;99134.69;6283463;28;20052;-73
2023/04/26 00:41:17;;;;;;;2.65;1.83;;;;;;;6.91;100.00;99132.19;6279408;28;20546;-78
2023/04/26 00:44:17;;;;;;;3.65;2.28;;;;;;;6.96;100.00;99127.53;6280566;28;20136;-79
2023/04/26 00:47:18;;;;;;;7.88;2.40;;;;;;;7.04;100.00;99139.13;6258853;28;20044;-78
2023/04/26 00:50:19;;;;;;;2.97;2.03;;;;;;;7.02;100.00;99138.41;6255774;28;20079;-79
2023/04/26 00:53:21;;;;;;;2.58;1.85;;;;;;;6.83;100.00;99135.22;6278970;28;20503;-78
2023/04/26 00:56:24;;;;;;;2.25;1.67;;;;;;;6.82;100.00;99141.34;6279292;28;20052;-78
2023/04/26 00:59:25;;;;;;;2.22;1.90;;;;;;;6.99;100.00;99135.97;6297901;28;20056;-78
2023/04/26 01:02:26;;;;;;;2.80;2.00;;;;;;;7.04;100.00;99136.53;6265231;28;20074;-78
2023/04/26 01:05:27;;;;;;;2.40;2.13;;;;;;;6.98;100.00;99144.69;6277411;28;20063;-78
2023/04/26 01:08:28;;;;;;;2.28;1.67;;;;;;;6.86;100.00;99141.06;6279701;28;20048;-78
2023/04/26 01:11:30;;;;;;;2.90;1.85;;;;;;;6.84;100.00;99145.53;6297040;28;20052;-78
2023/04/26 01:14:31;;;;;;;;;;;;;;;6.72;100.00;99151.44;6280198;28;20076;-78
2023/04/26 01:17:32;;;;;;;1.58;1.27;;;;;;;6.65;100.00;99147.53;6297631;28;19920;-78
2023/04/26 01:20:33;;;;;;;1.60;1.40;;;;;;;6.80;100.00;99151.81;6297442;28;20416;-78
2023/04/26 01:23:34;;;;;;;5.30;2.40;;;;;;;6.74;100.00;99148.75;6296580;28;20044;-79
2023/04/26 01:26:43;;;;;;;2.53;1.80;;;;;;;6.85;100.00;99141.97;6279505;28;20484;-78
2023/04/26 01:29:48;;;;;;;2.15;1.83;;;;;;;6.80;100.00;99149.22;6280265;28;20052;-78
2023/04/26 01:32:49;;;;;;;2.13;1.77;;;;;;;6.87;100.00;99152.28;6279490;28;20051;-78
2023/04/26 01:35:50;;;;;;;3.10;1.88;;;;;;;6.90;100.00;99152.09;6282031;28;20055;-78
2023/04/26 01:38:50;;;;;;;2.13;1.92;;;;;;;6.93;100.00;99161.44;6282892;28;20051;-78
2023/04/26 01:41:51;;;;;;;3.28;2.17;;;;;;;6.90;100.00;99154.69;6276632;28;20121;-78
2023/04/26 01:44:52;;;;;;;3.50;2.20;;;;;;;6.91;100.00;99165.91;6297244;28;20048;-78
2023/04/26 01:47:53;;;;;;;2.58;1.83;;;;;;;6.92;100.00;99170.16;6279638;28;20411;-78
2023/04/26 01:50:53;;;;;;;3.25;2.50;;;;;;;6.85;100.00;99164.50;6297221;28;20135;-78
2023/04/26 01:53:55;;;;;;;2.40;2.05;;;;;;;6.83;100.00;99171.53;6278517;28;20048;-78
2023/04/26 01:56:55;;;;;;;8.27;2.63;;;;;;;6.79;100.00;99165.69;6279535;28;20385;-78
2023/04/26 01:59:58;;;;;;;3.22;2.20;;;;;;;6.65;100.00;99163.94;6291694;28;20397;-78
2023/04/26 02:02:59;;;;;;;2.90;2.17;;;;;;;6.59;100.00;99159.13;6277941;28;20037;-78
2023/04/26 02:06:00;;;;;;;5.28;3.20;;;;;;;6.50;100.00;99157.03;6296066;28;20105;-78
2023/04/26 02:09:01;;;;;;;3.15;2.40;;;;;;;6.71;100.00;99162.72;6296933;28;20109;-79
2023/04/26 02:12:01;;;;;;;4.20;2.65;;;;;;;6.68;100.00;99157.72;6294926;28;20052;-78
2023/04/26 02:15:02;;;;;;;2.95;2.28;;;;;;;6.78;100.00;99156.25;6288851;28;20045;-78
2023/04/26 02:18:03;;;;;;;2.47;2.17;;;;;;;6.77;100.00;99158.94;6279221;28;20048;-78
2023/04/26 02:21:07;;;;;;;2.60;2.20;;;;;;;6.69;100.00;99171.50;6295505;28;20048;-78
2023/04/26 02:24:08;;;;;;;10.75;3.10;;;;;;;6.37;100.00;99164.72;6281275;28;20045;-78
2023/04/26 02:27:09;;;;;;;2.45;1.88;;;;;;;6.21;100.00;99169.09;6301396;28;20048;-78
2023/04/26 02:30:10;;;;;;;7.53;2.30;;;;;;;6.44;100.00;99166.03;6298774;28;20511;-78
2023/04/26 02:33:11;;;;;;;3.45;2.53;;;;;;;6.43;100.00;99163.53;6283126;28;20041;-79
2023/04/26 02:36:12;;;;;;;2.78;2.20;;;;;;;6.47;100.00;99159.84;6278544;28;20040;-78
2023/04/26 02:39:13;;;;;;;2.90;2.42;;;;;;;6.42;100.00;99162.69;6301099;28;20656;-78
2023/04/26 02:42:16;;;;;;;2.58;2.10;;;;;;;6.45;100.00;99172.88;6300489;28;20040;-78
2023/04/26 02:45:17;;;;;;;2.85;2.17;;;;;;;6.39;100.00;99165.44;6300873;28;20059;-78
2023/04/26 02:48:18;;;;;;;3.53;2.75;;;;;;;6.27;100.00;99170.50;6300426;28;20052;-78
2023/04/26 02:51:18;;;;;;;3.55;2.35;;;;;;;6.24;100.00;99180.13;6283187;28;20052;-78
2023/04/26 02:54:19;;;;;;;3.67;2.63;;;;;;;6.22;100.00;99176.78;6280385;28;20050;-78
2023/04/26 02:57:20;;;;;;;3.58;2.42;;;;;;;6.30;100.00;99184.13;6275941;28;20044;-78
2023/04/26 03:00:22;;;;;;;4.15;2.30;;;;;;;6.20;100.00;99177.81;6300146;28;20049;-78
2023/04/26 03:03:24;;;;;;;4.60;2.70;;;;;;;6.09;100.00;99190.50;6288279;28;20051;-78
2023/04/26 03:06:24;;;;;;;4.28;2.85;;;;;;;6.05;100.00;99195.03;6264662;28;20402;-78
2023/04/26 03:09:25;;;;;;;5.32;2.80;;;;;;;5.96;100.00;99195.56;6282591;28;20056;-78
2023/04/26 03:12:27;;;;;;;3.88;2.80;;;;;;;5.98;100.00;99193.72;6299649;28;20186;-78
2023/04/26 03:15:27;;;;;;;3.15;2.53;;;;;;;6.03;100.00;99192.53;6282456;28;20055;-78
2023/04/26 03:18:28;;;;;;;3.65;2.33;;;;;;;5.88;100.00;99200.28;6282083;28;20049;-78
2023/04/26 03:21:30;;;;;;;5.47;3.08;;;;;;;5.97;100.00;99198.06;6280256;28;20049;-78
2023/04/26 03:24:31;;;;;;;4.53;2.90;;;;;;;5.98;100.00;99204.91;6290117;28;20131;-78
2023/04/26 03:27:32;;;;;;;3.28;2.38;;;;;;;6.00;100.00;99210.81;6300130;28;20499;-78
2023/04/26 03:30:37;;;;;;;4.55;2.55;;;;;;;5.95;100.00;99214.59;6301299;28;20083;-78
2023/04/26 03:33:38;;;;;;;6.65;3.42;;;;;;;5.94;100.00;99207.72;6324883;28;20048;-78
2023/04/26 03:36:38;;;;;;;6.78;2.90;;;;;;;5.79;100.00;99214.56;6287948;28;20048;-78
2023/04/26 03:39:40;;;;;;;4.63;2.83;;;;;;;5.70;100.00;99218.47;6299218;28;20049;-78
2023/04/26 03:42:40;;;;;;;4.72;2.78;;;;;;;5.93;100.00;99218.97;6281876;28;20407;-78
2023/04/26 03:45:41;;;;;;;4.22;2.88;;;;;;;5.96;100.00;99224.88;6281356;28;20052;-78
2023/04/26 03:48:42;;;;;;;4.43;3.05;;;;;;;6.06;100.00;99232.97;6281830;28;20480;-78
2023/04/26 03:51:43;;;;;;;3.85;2.80;;;;;;;6.05;100.00;99241.63;6281396;28;20500;-78
2023/04/26 03:54:44;;;;;;;3.83;2.80;;;;;;;6.13;100.00;99241.22;6299295;28;20097;-79
2023/04/26 03:57:44;;;;;;;9.50;3.72;;;;;;;5.98;100.00;99243.75;6299211;28;20057;-78
2023/04/26 04:00:46;;;;;;;5.60;3.40;;;;;;;6.19;100.00;99246.06;6297130;28;20056;-78
2023/04/26 04:03:47;;;;;;;3.90;2.53;;;;;;;6.28;100.00;99245.56;6314131;28;20462;-78
2023/04/26 04:06:47;;;;;;;4.30;2.88;;;;;;;6.42;100.00;99248.22;6298325;28;20074;-78
2023/04/26 04:09:48;;;;;;;3.53;2.50;;;;;;;6.37;100.00;99245.03;6279765;28;20527;-78
2023/04/26 04:12:50;;;;;;;3.65;2.67;;;;;;;6.54;100.00;99256.19;6298089;28;20487;-78
2023/04/26 04:15:51;;;;;;;7.50;3.83;;;;;;;6.62;100.00;99260.00;6285233;28;20063;-79
2023/04/26 04:18:52;;;;;;;5.65;3.58;;;;;;;6.53;100.00;99257.13;6274208;28;20057;-79
2023/04/26 04:21:53;;;;;;;5.15;3.58;;;;;;;6.59;100.00;99270.56;6274267;28;20056;-78
2023/04/26 04:24:53;;;;;;;4.80;2.72;;;;;;;6.79;100.00;99263.38;6273975;28;20483;-79
2023/04/26 04:27:54;;;;;;;5.55;3.75;;;;;;;6.92;100.00;99263.50;6256371;28;20053;-79
2023/04/26 04:30:55;;;;;;;3.60;2.58;;;;;;;7.03;100.00;99276.69;6280569;28;20153;-79
2023/04/26 04:33:56;;;;;;;6.05;3.30;;;;;;;7.10;100.00;99269.38;6292735;28;20041;-79
2023/04/26 04:36:57;;;;;;;7.03;4.50;;;;;;;7.05;100.00;99269.66;6297925;28;20056;-78
2023/04/26 04:39:59;;;;;;;7.47;4.10;;;;;;;7.14;100.00;99283.84;6296843;28;20101;-78
2023/04/26 04:42:59;;;;;;;5.37;3.87;;;;;;;7.20;100.00;99286.06;6295900;28;20052;-78
2023/04/26 04:46:00;;;;;;;14.57;4.90;;;;;;;7.34;100.00;99286.09;6272456;28;20053;-78
2023/04/26 04:49:02;;;;;;;8.43;6.20;;;;;;;7.58;100.00;99298.53;6281270;28;20071;-78
2023/04/26 04:52:03;;;;;;;5.35;3.83;;;;;;;7.48;100.00;99293.06;6298257;28;20059;-79
2023/04/26 04:55:04;;;;;;;6.23;3.73;;;;;;;7.61;100.00;99293.97;6297749;28;20412;-79
2023/04/26 04:58:05;;;;;;;18.42;3.85;;;;;;;7.72;100.00;99301.13;6298343;28;20049;-79
2023/04/26 05:01:06;;;;;;;5.45;3.40;;;;;;;7.81;100.00;99302.31;6268635;28;20055;-79
2023/04/26 05:04:07;;;;;;;5.47;3.58;;;;;;;8.00;100.00;99299.41;6272818;28;20131;-79
2023/04/26 05:07:08;;;;;;;7.80;3.65;;;;;;;8.03;100.00;99307.00;6288426;28;20496;-79
2023/04/26 05:10:09;;;;;;;6.57;3.70;;;;;;;8.18;100.00;99303.44;6273009;28;20053;-79
2023/04/26 05:13:10;;;;;;;6.57;3.63;;;;;;;8.14;100.00;99308.94;6272489;28;20060;-79
2023/04/26 05:16:13;;;;;;;5.32;3.38;;;;;;;8.33;100.00;99319.00;6272393;28;20285;-79
2023/04/26 05:19:13;;;;;;;4.72;3.65;;;;;;;8.40;100.00;99326.31;6284728;28;20052;-79
2023/04/26 05:22:19;;;;;;;9.23;3.58;;;;;;;8.50;100.00;99323.16;6279946;28;20163;-79
2023/04/26 05:25:20;;;;;;;4.47;3.10;;;;;;;8.70;100.00;99319.28;6297535;28;20052;-79
2023/04/26 05:28:21;;;;;;;6.22;3.63;;;;;;;8.78;100.00;99322.22;6297758;28;20056;-79
2023/04/26 05:31:23;;;;;;;6.72;3.35;;;;;;;8.84;100.00;99325.25;6279853;28;20052;-79
2023/04/26 05:34:24;;;;;;;4.28;2.78;;;;;;;9.08;100.00;99337.59;6296789;28;20106;-79
2023/04/26 05:37:24;;;;;;;7.00;3.28;;;;;;;8.95;98.15;99332.34;6279209;28;20123;-79
2023/04/26 05:40:25;;;;;;;3.47;2.55;;;;;;;9.00;98.02;99337.25;6279892;28;20067;-79
2023/04/26 05:43:26;;;;;;;8.27;3.58;;;;;;;8.87;98.79;99342.41;6279929;28;20041;-78
2023/04/26 05:46:27;;;;;;;4.40;2.90;;;;;;;9.05;98.03;99346.41;6279880;28;20407;-79
2023/04/26 05:49:28;;;;;;;5.32;2.78;;;;;;;9.19;100.00;99358.53;6297464;28;20049;-79
2023/04/26 05:52:29;;;;;;;4.38;2.97;;;;;;;9.31;98.50;99361.22;6297312;28;20045;-79
2023/04/26 05:55:30;;;;;;;5.13;3.17;;;;;;;9.24;96.29;99360.81;6280980;28;20102;-79
2023/04/26 05:58:32;;;;;;;5.20;3.55;;;;;;;9.34;95.66;99359.25;6284274;28;20390;-79
2023/04/26 06:01:33;;;;;;;5.30;2.97;;;;;;;9.65;96.44;99362.41;6302494;28;20052;-79
2023/04/26 06:04:34;;;;;;;6.35;3.50;;;;;;;9.42;93.87;99367.41;6302330;28;20041;-79
2023/04/26 06:07:35;;;;;;;4.93;3.20;;;;;;;9.50;92.20;99377.31;6284476;28;20075;-78
2023/04/26 06:10:39;;;;;;;4.05;2.70;;;;;;;9.71;94.08;99377.63;6301922;28;20057;-78
2023/04/26 06:13:42;;;;;;;3.92;3.13;;;;;;;9.64;90.70;99392.00;6283879;28;20048;-78
2023/04/26 06:16:42;;;;;;;3.75;2.83;;;;;;;9.64;91.44;99385.03;6284311;28;20052;-79
2023/04/26 06:19:43;;;;;;;3.92;2.72;;;;;;;9.71;94.26;99397.63;6283919;28;20125;-78
2023/04/26 06:22:44;;;;;;;8.70;3.65;;;;;;;9.68;92.99;99396.06;6301481;28;20044;-78
2023/04/26 06:25:45;;;;;;;3.67;2.65;;;;;;;9.66;90.11;99388.34;6301307;28;20131;-78
2023/04/26 06:28:46;;;;;;;3.75;2.63;;;;;;;9.52;93.70;99395.44;6283614;28;20074;-78
2023/04/26 06:31:47;;;;;;;5.50;3.45;;;;;;;9.40;94.50;99397.09;6283741;28;20048;-78
2023/04/26 06:39:32;;;;;;;4.57;2.95;;;;;;;9.60;94.39;99403.56;6274722;28;20033;-78
2023/04/26 06:42:33;;;;;;;4.63;3.17;;;;;;;9.59;95.34;99399.28;6276675;28;20049;-78
2023/04/26 06:45:35;;;;;;;4.13;2.90;;;;;;;9.64;95.73;99403.25;6276527;28;20102;-78
2023/04/26 06:48:36;;;;;;;9.45;3.30;;;;;;;9.53;92.20;99404.91;6258208;28;20464;-78
2023/04/26 06:51:36;;;;;;;3.85;2.55;;;;;;;9.40;90.36;99404.91;6262211;28;20056;-77
2023/04/26 06:54:37;;;;;;;2.45;2.10;;;;;;;9.54;89.23;99415.22;6314825;28;20408;-78
2023/04/26 06:57:40;;;;;;;5.28;2.33;;;;;;;9.44;85.48;99414.16;6300432;28;20051;-78
2023/04/26 07:00:44;;;;;;;3.58;2.17;;;;;;;9.35;83.48;99413.03;6282576;28;20416;-78
2023/04/26 07:03:44;;;;;;;3.30;2.47;;;;;;;9.59;86.09;99417.53;6321175;28;20048;-77
2023/04/26 07:06:48;;;;;;;4.38;2.75;;;;;;;9.72;85.39;99426.19;6306739;28;20106;-77
2023/04/26 07:09:49;;;;;;;3.30;2.45;;;;;;;9.74;84.94;99428.66;6307486;28;20056;-78
2023/04/26 07:12:52;;;;;;;6.03;3.03;;;;;;;9.49;82.06;99430.31;6307174;28;20190;-78
2023/04/26 07:15:55;;;;;;;4.00;2.05;;;;;;;9.50;78.18;99431.16;6325689;28;20048;-77
2023/04/26 07:18:58;;;;;;;5.25;2.10;;;;;;;9.52;79.17;99435.34;6307487;28;20212;-78
2023/04/26 07:22:00;;;;;;;3.83;2.55;;;;;;;9.65;81.31;99438.78;6307668;28;20076;-77
2023/04/26 07:25:01;;;;;;;5.50;2.70;;;;;;;9.59;79.96;99440.97;6307412;28;20043;-77
2023/04/26 07:28:01;;;;;;;4.57;2.45;;;;;;;9.66;80.09;99447.44;6325486;28;20066;-78
2023/04/26 07:31:02;;;;;;;12.20;2.92;;;;;;;9.70;82.21;99446.31;6306836;28;20077;-77
2023/04/26 07:34:03;;;;;;;4.32;2.42;;;;;;;9.57;77.24;99451.47;6306916;28;20047;-77
2023/04/26 07:37:04;;;;;;;3.40;1.90;;;;;;;9.76;78.05;99453.72;6325120;28;20048;-77
2023/04/26 07:40:07;;;;;;;5.40;2.40;;;;;;;9.90;78.37;99460.56;6306822;28;20087;-77
2023/04/26 07:43:08;;;;;;;2.97;1.83;;;;;;;9.98;77.56;99465.28;6306627;28;20416;-77
2023/04/26 07:46:09;;;;;;;6.43;2.63;;;;;;;10.08;75.92;99477.56;6324674;28;20141;-77
2023/04/26 07:49:10;;;;;;;2.10;1.60;;;;;;;9.93;72.67;99476.00;6306946;28;20060;-78
2023/04/26 07:52:13;;;;;;;2.50;1.70;;;;;;;9.92;71.70;99476.94;6306809;28;20054;-77
2023/04/26 07:55:16;;;;;;;2.60;1.70;;;;;;;10.04;70.68;99480.50;6306694;28;20048;-77
2023/04/26 07:58:18;;;;;;;5.65;1.65;;;;;;;10.14;69.85;99478.09;6324577;28;20173;-77
2023/04/26 08:01:19;;;;;;;2.55;1.65;;;;;;;10.38;68.53;99481.66;6324070;28;20411;-77
2023/04/26 08:04:31;;;;;;;1.02;0.93;;;;;;;10.58;62.98;99489.88;6306516;28;20044;-77
2023/04/26 08:07:32;;;;;;;2.70;1.40;;;;;;;10.81;63.16;99491.69;6324663;28;20048;-77
2023/04/26 08:10:37;;;;;;;2.47;1.55;;;;;;;11.06;61.61;99493.38;6306265;28;20048;-77
2023/04/26 08:13:37;;;;;;;3.33;1.48;;;;;;;11.13;61.52;99493.78;6323885;28;20059;-77
2023/04/26 08:16:39;;;;;;;2.53;1.48;;;;;;;11.64;62.30;99505.75;6306139;28;20434;-77
2023/04/26 08:19:40;;;;;;;3.30;1.73;;;;;;;11.29;61.59;99501.34;6305381;28;20100;-77
2023/04/26 08:22:41;;;;;;;1.55;1.27;;;;;;;11.35;59.11;99500.06;6306035;28;20044;-77
2023/04/26 08:25:44;;;;;;;1.73;1.35;;;;;;;11.26;58.80;99493.72;6305773;28;20048;-77
2023/04/26 08:28:45;;;;;;;4.10;1.73;;;;;;;11.54;58.66;99502.97;6305508;28;20484;-77
2023/04/26 08:31:46;;;;;;;2.45;1.52;;;;;;;11.52;57.10;99504.06;6305843;28;20059;-77
2023/04/26 08:34:47;;;;;;;2.75;1.30;;;;;;;11.46;56.92;99505.31;6305472;28;20056;-77
2023/04/26 08:37:48;;;;;;;1.47;1.20;;;;;;;11.67;58.17;99506.38;6323495;28;20094;-77
2023/04/26 08:40:50;;;;;;;3.28;1.73;;;;;;;12.00;57.17;99512.63;6305566;28;20431;-77
2023/04/26 08:43:51;;;;;;;;;;;;;;;12.01;56.49;99508.25;6305912;28;20050;-76
2023/04/26 08:47:24;;;;;;;3.92;1.30;;;;;;;11.61;55.22;99511.19;6339312;28;19924;-77
2023/04/26 08:50:32;;;;;;;1.13;0.82;;;;;;;11.70;54.08;99511.34;6292152;28;20056;-77
2023/04/26 08:53:34;;;;;;;1.10;1.00;;;;;;;11.79;56.90;99509.84;6323195;28;20090;-77
2023/04/26 08:56:35;;;;;;;;;;;;;;;11.58;53.73;99517.47;6323743;28;20070;-76
2023/04/26 08:59:37;;;;;;;0.95;0.88;;;;;;;11.87;55.06;99523.16;6322614;28;19928;-77
2023/04/26 09:02:45;;;;;;;2.75;1.20;;;;;;;12.41;54.42;99526.97;6322815;28;20403;-77
2023/04/26 09:05:45;;;;;;;2.42;0.90;;;;;;;12.51;54.28;99529.72;6323155;28;20098;-77
2023/04/26 09:08:46;;;;;;;4.53;1.52;;;;;;;12.03;53.40;99524.66;6322745;28;20484;-77
2023/04/26 09:11:58;;;;;;;3.15;1.33;;;;;;;12.04;53.08;99523.72;6304483;28;20052;-77
2023/04/26 09:15:00;;;;;;;5.10;1.48;;;;;;;12.36;51.95;99520.44;6322955;28;20051;-77
2023/04/26 09:18:21;;;;;;;1.38;1.02;;;;;;;13.17;52.14;99524.50;6322885;28;20047;-77
2023/04/26 09:21:22;;;;;;;2.00;1.25;;;;;;;13.10;53.90;99525.97;6322927;28;20084;-77
2023/04/26 09:24:25;;;;;;;1.20;1.10;;;;;;;13.76;52.84;99535.53;6304767;28;20054;-77
2023/04/26 09:27:33;;;;;;;2.40;1.10;;;;;;;13.58;49.63;99541.31;6322731;28;20048;-77
2023/04/26 09:30:38;;;;;;;2.75;1.23;;;;;;;13.44;48.31;99537.19;6323892;28;20048;-77
2023/04/26 09:33:59;;;;;;;2.00;1.27;;;;;;;12.98;48.89;99534.81;6327976;28;20040;-77
2023/04/26 09:37:00;;;;;;;2.42;1.30;;;;;;;12.78;49.80;99531.13;6328000;28;20081;-77
2023/04/26 09:40:17;;;;;;;3.03;1.38;;;;;;;13.20;49.62;99536.53;6327935;28;20048;-77
2023/04/26 09:43:22;;;;;;;1.70;0.95;;;;;;;13.79;48.05;99523.00;6309829;28;20044;-77
2023/04/26 09:46:23;;;;;;;2.95;1.33;;;;;;;13.77;49.97;99531.94;6327824;28;20044;-77
2023/04/26 09:49:30;;;;;;;2.65;1.00;;;;;;;13.08;48.08;99540.97;6327484;28;20047;-77
2023/04/26 09:52:42;;;;;;;1.30;1.10;;;;;;;13.43;50.37;99529.47;6309322;28;20077;-77
2023/04/26 09:55:43;;;;;;;2.50;1.42;;;;;;;13.42;49.71;99533.03;6325997;28;20047;-77
2023/04/26 09:58:56;;;;;;;2.40;1.23;;;;;;;13.44;49.37;99533.75;6296642;28;20058;-73
2023/04/26 10:01:57;;;;;;;2.55;0.98;;;;;;;13.35;48.59;99527.47;6309415;28;20059;-73
2023/04/26 10:05:00;;;;;;;4.00;1.52;;;;;;;13.12;48.24;99536.34;6300082;28;20405;-72
2023/04/26 10:08:02;;;;;;;3.53;1.23;;;;;;;13.37;47.68;99527.34;6299973;28;20179;-72
2023/04/26 10:11:06;;;;;;;8.23;1.20;;;;;;;13.55;48.97;99527.63;6299728;28;20098;-72
2023/04/26 10:14:07;;;;;;;2.08;1.02;;;;;;;13.24;49.59;99536.19;6282008;28;20052;-72
2023/04/26 10:17:08;;;;;;;5.55;1.40;;;;;;;13.57;48.77;99533.56;6281794;28;20102;-72
2023/04/26 10:20:15;;;;;;;3.60;1.20;;;;;;;13.49;48.20;99537.66;6281888;28;20154;-72
2023/04/26 10:23:24;;;;;;;2.67;1.00;;;;;;;13.33;48.69;99537.25;6282045;28;20041;-72
2023/04/26 10:26:55;;;;;;;1.73;1.02;;;;;;;12.58;48.68;99545.75;6299393;28;20080;-72
2023/04/26 10:29:58;;;;;;;1.58;0.80;;;;;;;12.50;50.54;99541.97;6299435;28;20051;-72
2023/04/26 10:32:58;;;;;;;;;;;;;;;12.67;50.40;99545.88;6299847;28;20074;-73
2023/04/26 10:36:07;;;;;;;5.15;1.55;;;;;;;12.66;47.18;99543.38;6281372;28;20393;-73
2023/04/26 10:39:21;;;;;;;3.28;1.13;;;;;;;13.37;52.08;99536.03;6281571;28;20060;-73
2023/04/26 10:42:26;;;;;;;3.55;1.35;;;;;;;13.49;48.57;99544.72;6297538;28;20068;-72
2023/04/26 10:45:28;;;;;;;7.60;1.60;;;;;;;14.33;47.74;99534.25;6298957;28;20060;-72
2023/04/26 10:48:30;;;;;;;2.03;1.00;;;;;;;13.98;48.43;99529.34;6298870;28;20488;-73
2023/04/26 10:51:35;;;;;;;2.05;1.05;;;;;;;13.82;49.40;99525.38;6299088;28;20087;-73
2023/04/26 10:54:48;;;;;;;2.47;1.13;;;;;;;13.77;44.98;99526.72;6280937;28;20048;-72
2023/04/26 10:57:51;;;;;;;1.25;1.00;;;;;;;14.06;45.39;99533.00;6281064;28;20048;-72
2023/04/26 11:01:16;;;;;;;1.75;0.90;;;;;;;13.42;47.23;99535.66;6280803;28;20455;-72
2023/04/26 11:04:17;;;;;;;5.45;1.30;;;;;;;13.28;47.65;99534.13;6280929;28;20060;-72
2023/04/26 11:07:38;;;;;;;2.05;1.23;;;;;;;13.29;48.40;99530.59;6280769;28;20059;-72
2023/04/26 11:10:40;;;;;;;3.57;1.20;;;;;;;13.45;48.78;99530.19;6298089;28;20110;-72
2023/04/26 11:13:44;;;;;;;2.90;1.20;;;;;;;13.41;47.41;99526.97;6280316;28;20127;-73
2023/04/26 11:16:45;;;;;;;1.20;0.90;;;;;;;13.40;48.82;99537.56;6280740;28;20048;-73
2023/04/26 11:19:46;;;;;;;2.05;1.10;;;;;;;13.40;47.31;99542.81;6280605;28;20090;-73
2023/04/26 11:22:47;;;;;;;1.95;1.20;;;;;;;13.90;47.55;99543.94;6298228;28;20427;-73
2023/04/26 11:25:48;;;;;;;11.57;1.38;;;;;;;15.18;47.09;99543.56;6280088;28;20485;-72
2023/04/26 11:28:52;;;;;;;1.27;0.80;;;;;;;14.66;43.20;99540.22;6298137;28;20060;-72
2023/04/26 11:31:54;;;;;;;1.80;0.95;;;;;;;14.41;46.43;99544.94;6280350;28;20102;-72
2023/04/26 11:34:59;;;;;;;3.05;0.93;;;;;;;14.01;47.05;99552.69;6280257;28;20047;-72
2023/04/26 11:38:04;;;;;;;1.77;1.05;;;;;;;14.00;46.72;99549.25;6297787;28;20065;-72
2023/04/26 11:41:05;;;;;;;2.65;1.27;;;;;;;13.52;45.67;99547.06;6297927;28;20130;-72
2023/04/26 11:44:05;;;;;;;2.20;1.00;;;;;;;14.01;46.10;99543.03;6297806;28;20048;-73
2023/04/26 11:47:07;;;;;;;3.53;1.40;;;;;;;14.05;46.46;99548.84;6279879;28;20130;-72
2023/04/26 11:50:08;;;;;;;1.00;0.80;;;;;;;14.45;47.14;99541.06;6279999;28;20059;-72
2023/04/26 11:53:10;;;;;;;2.85;1.17;;;;;;;14.27;46.33;99547.91;6279140;28;20506;-73
2023/04/26 11:56:17;;;;;;;1.63;1.20;;;;;;;14.51;43.33;99548.41;6297606;28;20045;-74
2023/04/26 11:59:25;;;;;;;6.22;1.42;;;;;;;14.49;46.24;99542.47;6279879;28;20044;-73
2023/04/26 12:02:28;;;;;;;2.90;1.10;;;;;;;14.90;45.30;99542.50;6279550;28;20127;-73
2023/04/26 12:05:32;;;;;;;4.18;1.17;;;;;;;14.73;43.97;99546.59;6297057;28;20451;-73
2023/04/26 12:08:32;;;;;;;3.75;1.30;;;;;;;14.77;45.22;99540.13;6296754;28;20045;-73
2023/04/26 12:11:33;;;;;;;6.18;1.52;;;;;;;15.06;43.31;99542.00;6296888;28;20063;-73
2023/04/26 12:14:39;;;;;;;2.13;1.20;;;;;;;15.15;45.42;99532.47;6296702;28;20068;-73
2023/04/26 12:17:52;;;;;;;1.63;1.02;;;;;;;14.90;44.56;99537.25;6279277;28;20057;-73
2023/04/26 12:20:58;;;;;;;1.23;0.90;;;;;;;14.32;45.72;99543.91;6297247;28;20058;-73
2023/04/26 12:23:58;;;;;;;4.72;1.02;;;;;;;14.54;45.56;99533.34;6296381;28;20408;-73
2023/04/26 12:27:01;;;;;;;3.03;1.13;;;;;;;14.14;46.24;99534.94;6296416;28;20048;-72
2023/04/26 12:30:02;;;;;;;1.42;1.13;;;;;;;13.52;44.97;99535.75;6296703;28;20045;-72
2023/04/26 12:33:06;;;;;;;2.28;1.10;;;;;;;14.09;47.57;99550.25;6278910;28;20052;-73
2023/04/26 12:36:10;;;;;;;1.58;0.90;;;;;;;14.13;47.06;99535.09;6296610;28;20106;-73
2023/04/26 12:39:14;;;;;;;1.85;0.80;;;;;;;13.96;43.50;99545.22;6296339;28;20048;-73
2023/04/26 12:42:15;;;;;;;2.88;1.00;;;;;;;14.32;43.90;99536.03;6296447;28;20052;-72
2023/04/26 12:45:17;;;;;;;1.70;1.08;;;;;;;13.86;45.22;99532.03;6308934;28;20186;-73
2023/04/26 12:48:18;;;;;;;4.88;1.38;;;;;;;13.89;46.47;99536.19;6321486;28;20075;-74
2023/04/26 12:51:19;;;;;;;2.05;1.20;;;;;;;14.46;46.76;99539.28;6303201;28;20078;-73
2023/04/26 12:54:20;;;;;;;1.50;0.95;;;;;;;15.00;43.79;99530.25;6302893;28;20048;-73
2023/04/26 12:57:21;;;;;;;1.85;1.00;;;;;;;15.03;43.98;99529.13;6303274;28;20131;-73
2023/04/26 13:00:22;;;;;;;1.33;0.98;;;;;;;14.67;44.65;99523.50;6302945;28;20419;-73
2023/04/26 13:03:22;;;;;;;4.05;1.35;;;;;;;14.73;42.96;99530.84;6320832;28;20079;-73
2023/04/26 13:06:23;;;;;;;2.20;1.30;;;;;;;14.24;44.93;99538.47;6302480;28;20479;-73
2023/04/26 13:09:24;;;;;;;4.82;1.15;;;;;;;14.52;42.72;99539.59;6303059;28;20083;-73
2023/04/26 13:12:27;;;;;;;9.68;1.55;;;;;;;14.54;44.77;99542.09;6302597;28;20044;-73
2023/04/26 13:15:28;;;;;;;1.80;1.23;;;;;;;14.47;43.05;99549.63;6302935;28;20073;-72
2023/04/26 13:18:29;;;;;;;2.45;1.08;;;;;;;15.19;44.18;99547.00;6302656;28;20055;-73
2023/04/26 13:21:31;;;;;;;1.92;0.90;;;;;;;15.29;42.88;99543.44;6302736;28;20105;-73
2023/04/26 13:24:32;;;;;;;3.00;1.05;;;;;;;14.75;42.96;99546.47;6302690;28;20047;-73
2023/04/26 13:27:35;;;;;;;3.78;1.40;;;;;;;15.66;42.56;99547.19;6302586;28;20048;-73
2023/04/26 13:30:36;;;;;;;1.33;1.05;;;;;;;16.06;40.05;99546.22;6320745;28;20054;-72
2023/04/26 13:33:37;;;;;;;4.13;1.30;;;;;;;16.18;40.96;99539.81;6302345;28;20048;-73
2023/04/26 13:36:38;;;;;;;2.92;1.05;;;;;;;15.50;40.79;99542.47;6293435;28;20044;-73
2023/04/26 13:39:41;;;;;;;1.30;1.07;;;;;;;14.72;43.14;99544.94;6284487;28;20049;-73
2023/04/26 13:42:42;;;;;;;1.80;0.95;;;;;;;14.11;43.11;99546.53;6319710;28;20305;-73
2023/04/26 13:45:43;;;;;;;3.00;0.85;;;;;;;14.04;44.25;99550.66;6318480;28;20097;-74
2023/04/26 13:48:43;;;;;;;2.47;1.17;;;;;;;14.19;43.29;99547.72;6302297;28;20129;-74
2023/04/26 13:51:47;;;;;;;2.13;1.13;;;;;;;14.37;45.18;99555.78;6320195;28;20066;-73
2023/04/26 13:54:48;;;;;;;6.25;1.35;;;;;;;14.71;47.05;99556.41;6319944;28;20161;-73
2023/04/26 13:57:48;;;;;;;3.60;1.10;;;;;;;14.09;44.04;99547.63;6302294;28;20048;-72
2023/04/26 14:00:49;;;;;;;2.08;0.98;;;;;;;13.95;43.74;99545.34;6320065;28;20143;-72
2023/04/26 14:03:50;;;;;;;1.77;1.17;;;;;;;13.54;44.94;99549.56;6320038;28;20054;-73
2023/04/26 14:06:51;;;;;;;1.27;0.95;;;;;;;13.43;44.88;99547.81;6301972;28;20083;-73
2023/04/26 14:09:52;;;;;;;2.33;1.17;;;;;;;13.88;47.19;99551.09;6319932;28;20408;-73
2023/04/26 14:12:55;;;;;;;2.55;0.95;;;;;;;13.85;43.89;99551.31;6319902;28;20308;-72
2023/04/26 14:15:59;;;;;;;2.13;1.38;;;;;;;13.68;44.30;99554.53;6320274;28;20048;-73
2023/04/26 14:19:00;;;;;;;8.90;1.15;;;;;;;13.93;44.50;99555.13;6324622;28;20442;-73
2023/04/26 14:22:01;;;;;;;1.67;1.13;;;;;;;14.03;44.77;99569.97;6324599;28;20526;-73
2023/04/26 14:25:02;;;;;;;1.13;0.90;;;;;;;13.26;44.59;99562.22;6324550;28;20044;-73
2023/04/26 14:28:03;;;;;;;3.17;0.98;;;;;;;13.52;43.82;99562.78;6306380;28;20051;-73